PWSweather.com
Personal Weather Stations
Station Observations
SANDHURSTWX
SandhurstGB

SandhurstGB

Lat: 51.3522, Lon: -0.7739

Elevation: 272.3

Station Type: Davis VP2

www.sandhurstweather.org.uk

High Low Average
Temperature 70.3°F21.3°C 53.6°F12.0°C 62.0°F16.7°C
Dew Point 60.1°F15.6°C 41.7°F5.4°C 50.1°F10.1°C
Winds 5.8 mph 9.3 kmh Calm Calm 3.0 mph SSE4.8 kmh SSE
Wind Gusts 11.5 mph18.5 kmh -- 5.0 mph8.0 kmh
Humidity 93% 41% 68%
Pressure 30.59 in1035.9 mb 30.40 in1029.5 mb -
Precipitation 0.01 in0.3 mm - -
Hour Temp Dew Point Humidity Winds Wind Gusts Pressure Precip Precip Rate Daily Precip Total
12:00 AM 63.2°F17.3°C 59.9°F15.5°C 89% Calm Calm -- 30.40 in1029.5 mb - 0.00 in0.0 mm 0.00 in0.0 mm
01:00 AM 62.7°F17.1°C 60.0°F15.6°C 91% Calm Calm -- 30.41 in1029.8 mb - 0.00 in0.0 mm 0.00 in0.0 mm
02:00 AM 62.1°F16.7°C 60.1°F15.6°C 93% 1.2 mph WSW1.9 kmh WSW 3.5 mph5.6 kmh 30.42 in1030.1 mb - 0.01 in0.3 mm 0.01 in0.3 mm
03:00 AM 59.9°F15.5°C 57.6°F14.2°C 92% 3.5 mph NW5.6 kmh NW 4.6 mph7.4 kmh 30.45 in1031.2 mb - 0.00 in0.0 mm 0.01 in0.3 mm
04:00 AM 58.4°F14.7°C 54.9°F12.7°C 88% 4.6 mph NW7.4 kmh NW 4.6 mph7.4 kmh 30.46 in1031.5 mb - 0.00 in0.0 mm 0.01 in0.3 mm
05:00 AM 56.7°F13.7°C 51.3°F10.7°C 82% 3.5 mph NNW5.6 kmh NNW 10.4 mph16.7 kmh 30.49 in1032.5 mb - 0.00 in0.0 mm 0.01 in0.3 mm
06:00 AM 55.0°F12.8°C 49.6°F9.8°C 82% 2.3 mph NW3.7 kmh NW 3.5 mph5.6 kmh 30.51 in1033.2 mb - 0.00 in0.0 mm 0.01 in0.3 mm
07:00 AM 53.6°F12.0°C 49.5°F9.7°C 86% 2.3 mph NW3.7 kmh NW 3.5 mph5.6 kmh 30.52 in1033.5 mb - 0.00 in0.0 mm 0.01 in0.3 mm
08:00 AM 56.2°F13.4°C 50.8°F10.4°C 82% 2.3 mph NNW3.7 kmh NNW 9.2 mph14.8 kmh 30.54 in1034.2 mb - 0.00 in0.0 mm 0.01 in0.3 mm
09:00 AM 61.1°F16.2°C 50.8°F10.4°C 69% 3.5 mph N5.6 kmh N 5.8 mph9.3 kmh 30.56 in1034.9 mb - 0.00 in0.0 mm 0.01 in0.3 mm
10:00 AM 63.4°F17.4°C 51.4°F10.8°C 65% 3.5 mph N5.6 kmh N 6.9 mph11.1 kmh 30.56 in1034.9 mb - 0.00 in0.0 mm 0.01 in0.3 mm
11:00 AM 66.4°F19.1°C 51.6°F10.9°C 59% 5.8 mph N9.3 kmh N 11.5 mph18.5 kmh 30.56 in1034.9 mb - 0.00 in0.0 mm 0.01 in0.3 mm
12:00 PM 67.8°F19.9°C 51.0°F10.6°C 55% 3.5 mph NNE5.6 kmh NNE 4.6 mph7.4 kmh 30.55 in1034.5 mb - 0.00 in0.0 mm 0.01 in0.3 mm
01:00 PM 69.1°F20.6°C 48.0°F8.9°C 47% 5.8 mph E9.3 kmh E 5.8 mph9.3 kmh 30.55 in1034.5 mb - 0.00 in0.0 mm 0.01 in0.3 mm
02:00 PM 70.0°F21.1°C 48.3°F9.1°C 46% 2.3 mph NE3.7 kmh NE 9.2 mph14.8 kmh 30.55 in1034.5 mb - 0.00 in0.0 mm 0.01 in0.3 mm
03:00 PM 70.3°F21.3°C 46.1°F7.8°C 42% 3.5 mph ESE5.6 kmh ESE 5.8 mph9.3 kmh 30.55 in1034.5 mb - 0.00 in0.0 mm 0.01 in0.3 mm
04:00 PM 70.2°F21.2°C 45.4°F7.4°C 41% 2.3 mph ESE3.7 kmh ESE 4.6 mph7.4 kmh 30.54 in1034.2 mb - 0.00 in0.0 mm 0.01 in0.3 mm
05:00 PM 67.8°F19.9°C 43.9°F6.6°C 42% 4.6 mph NE7.4 kmh NE 5.8 mph9.3 kmh 30.54 in1034.2 mb - 0.00 in0.0 mm 0.01 in0.3 mm
06:00 PM 65.4°F18.6°C 44.6°F7.0°C 47% 2.3 mph ENE3.7 kmh ENE 3.5 mph5.6 kmh 30.55 in1034.5 mb - 0.00 in0.0 mm 0.01 in0.3 mm
07:00 PM 60.0°F15.6°C 44.7°F7.1°C 57% Calm Calm 2.3 mph3.7 kmh 30.55 in1034.5 mb - 0.00 in0.0 mm 0.01 in0.3 mm
08:00 PM 57.8°F14.3°C 41.7°F5.4°C 55% 3.5 mph ENE5.6 kmh ENE 5.8 mph9.3 kmh 30.57 in1035.2 mb - 0.00 in0.0 mm 0.01 in0.3 mm
09:00 PM 58.0°F14.4°C 42.4°F5.8°C 56% 3.5 mph NE5.6 kmh NE 4.6 mph7.4 kmh 30.58 in1035.6 mb - 0.00 in0.0 mm 0.01 in0.3 mm
10:00 PM 56.9°F13.8°C 48.3°F9.1°C 73% 1.2 mph E1.9 kmh E 3.5 mph5.6 kmh 30.59 in1035.9 mb - 0.00 in0.0 mm 0.01 in0.3 mm
11:00 PM 55.5°F13.1°C 51.1°F10.6°C 85% 3.5 mph E5.6 kmh E 6.9 mph11.1 kmh 30.58 in1035.6 mb - 0.00 in0.0 mm 0.01 in0.3 mm